Falkirk, United Kingdom

4:47 AM BST on August 28, 2016 (GMT +0100)
| | Change Station

Elev -9999 ft 0.00 °N, 0.00 °E | Updated

Rain
Rain
54 °F
Feels Like 54 °F
N
4
Wind Variable Wind from ENE
Gusts mph

Today
High -- | Low -- °F
--% Chance of Precip.
Yesterday
High -- | Low -- °F
Precip. -- in
Pressure 29.89 in
Visibility 6.2 miles
Clouds Mostly Cloudy 2800 ft
Dew Point 53 °F
Humidity 95%
Rainfall --
Snow Depth Not available.
6:12 AM 8:18 PM
Waning Crescent, 19% visible
METAR EGPH 280320Z 04003KT 9999 BKN028 14/13 Q1012
Pressure 29.89 in
Visibility 6.2 miles
Clouds Mostly Cloudy 2800 ft
Dew Point 53 °F
Humidity 95%
Rainfall --
Snow Depth Not available.
6:12 AM 8:18 PM
Waning Crescent, 19% visible
METAR EGPH 280320Z 04003KT 9999 BKN028 14/13 Q1012

10-Day Weather Forecast

×

Almanac

Astronomy

Aug. 28, 2016 Rise Set
Actual Time
Civil Twilight
Nautical Twilight
Astronomical Twilight
Moon
Length of Visible Light
Length of Day
Tomorrow will be .
, % of the Moon is Illuminated

Today's Extremes

Country Highs Country Lows

Community

WunderPhotos

Upload Photos

1,935,519 photos uploaded!

WunderBlog® & News

Nearby

Air Quality

  Air Quality AQ Index Pollutant
Not available.

Snow Depth

Station Depth Elevation

Earthquake Activity

City Distance Mag. Time & Date
Minimum magnitude displayed is 2.5.

Coastal Water Temperatures

Place Temperature

Stations

Nearby Weather Stations

Station Location Temp. Windchill Dew Point Humidity Wind Precip. Elev Updated Type